首页
METAR-TAF:

METAR-TAF

机场 :

Albert J. Ellis Airport

傑克遜維爾, 北卡罗来纳州, 美国

纬度: 34-50N, 经度: 077-37W, 海拔: 29米

当前天气观测

该预报发布于48分钟前的23:56 UTC
风速6节,风向北转东北
温度 10°C
湿度 82%
气压 1025 hPa
能見度: 16.1公里
阴天层高于7500英尺

METAR: KOAJ 142356Z 02006KT 10SM OVC075 10/07 A3026 RMK AO2 SLP251 T01000072 10117 20100 58002

时间: 19:44 (00:44 UTC)

预报

该预报发布于1小时和14分钟前的23:30 UTC
预报有效从15日的 00点(UTC)到 15日的 24点(UTC)
风速4节,风向
能見度: 10公里
散云层高于3000英尺
阴天层高于5000英尺
从 15日的 0400点(UTC)
风速3节,风向
能見度: 9.7公里
散云层高于700英尺
阴天层高于1500英尺
小雨
从 15日的 0700点(UTC)
风速5节,风向
能見度: 8.0公里
阴天层高于700英尺
小雨
从 15日的 1800点(UTC)
风速10节,风向,有时为15节阵风
能見度: 6.4公里
阴天层高于600英尺
小雨

TAF: KOAJ 142330Z 1500/1524 36004KT P6SM SCT030 OVC050 FM150400 36003KT 6SM -RA SCT007 OVC015 FM150700 36005KT 5SM -RA OVC007 FM151800 01010G15KT 4SM -RA OVC006 AMD LTD TO CLD VIS AND WIND

超过4000个机场的气象观测和天气预报(METAR&TAF报告)。

可查询的气象台以黄色和红色小点在地图上表示。

将鼠标移到小点上方,可查看气象台名称。

然后点击查看天气观测和预报。

如需切换地图:点击带黑十字的绿色按钮放大地图;点击带横线的绿色按钮缩小地图;或者点击绿色箭头查看邻近地区的地图。


METAR-TAF: